WetterOnline ( https://www.wetteronline.de )

Wetter aktuell Leck

Aktuelles Wetter: Leck (17m)

6-stündlich | Neueste Meldungen
Ortszeit Temperatur Wetter
Mi, 08.02. 13:00 3.1° C wolkenlos
Mi, 08.02. 7:00 -3.5° C fast wolkenlos
Mi, 08.02. 1:00 -0.9° C fast wolkenlos
Di, 07.02. 19:00 -0.4° C wolkenlos
Di, 07.02. 13:00 3.8° C fast wolkenlos
Di, 07.02. 7:00 0.1° C fast wolkenlos
Di, 07.02. 1:00 -0.4° C Nebel
Mo, 06.02. 19:00 2.0° C wolkig
Ortszeit Temperatur Wetter
Mi, 08.02. 18:00 1.5° C leicht bewölkt
Mi, 08.02. 17:50 1.5° C leicht bewölkt
Mi, 08.02. 17:40 1.5° C wolkig
Mi, 08.02. 17:30 2.1° C leicht bewölkt
Mi, 08.02. 17:20 2.1° C leicht bewölkt
Mi, 08.02. 17:10 2.2° C leicht bewölkt
Mi, 08.02. 17:00 2.9° C leicht bewölkt
Mi, 08.02. 16:30 3.2° C leicht bewölkt
Mi, 08.02. 16:00 3.8° C wolkenlos
Mi, 08.02. 15:30 4.0° C wolkenlos
Mi, 08.02. 15:00 4.1° C wolkenlos
Ortszeit Relative Feuchte Sichtweite
Mi, 08.02. 13:00 70% 20 km
Mi, 08.02. 7:00 91% 4.8 km
Mi, 08.02. 1:00 90% 11 km
Di, 07.02. 19:00 92% 15 km
Di, 07.02. 13:00 78% 25 km
Di, 07.02. 7:00 94% 6 km
Di, 07.02. 1:00 99% 0.5 km
Mo, 06.02. 19:00 94% 13 km
Ortszeit Relative Feuchte Sichtweite
Mi, 08.02. 18:00 68% 24 km
Mi, 08.02. 17:50 68% -
Mi, 08.02. 17:40 68% -
Mi, 08.02. 17:30 67% 24 km
Mi, 08.02. 17:20 67% -
Mi, 08.02. 17:10 66% -
Mi, 08.02. 17:00 65% 20 km
Mi, 08.02. 16:30 67% 20 km
Mi, 08.02. 16:00 62% 22 km
Mi, 08.02. 15:30 62% 23 km
Mi, 08.02. 15:00 63% 29 km
Ortszeit Niederschlagsmenge Niederschlagsart
Mi, 08.02. 13:00 0.0 l/m2 in 6 Std. -
Mi, 08.02. 7:00 0.0 l/m2 in 12 Std. -
Mi, 08.02. 1:00 0.0 l/m2 in 6 Std. -
Di, 07.02. 19:00 0.0 l/m2 in 12 Std. -
Di, 07.02. 13:00 0.0 l/m2 in 6 Std. -
Di, 07.02. 7:00 0.0 l/m2 in 12 Std. -
Di, 07.02. 1:00 0.0 l/m2 in 6 Std. -
Mo, 06.02. 19:00 0.1 l/m2 in 12 Std. -
Ortszeit Niederschlagsmenge Niederschlagsart
Mi, 08.02. 18:00 0.0 l/m2 in 1 Std. -
Mi, 08.02. 17:50 keine Meldung -
Mi, 08.02. 17:40 keine Meldung -
Mi, 08.02. 17:30 0.0 l/m2 in 30 Min -
Mi, 08.02. 17:20 keine Meldung -
Mi, 08.02. 17:10 keine Meldung -
Mi, 08.02. 17:00 0.0 l/m2 in 1 Std. -
Mi, 08.02. 16:30 0.0 l/m2 in 30 Min -
Mi, 08.02. 16:00 0.0 l/m2 in 1 Std. -
Mi, 08.02. 15:30 0.0 l/m2 in 30 Min -
Mi, 08.02. 15:00 0.0 l/m2 in 1 Std. -
Ortszeit Stärke Spitze Richtung
km/h Bft. km/h Grad Sektor
Mi, 08.02. 13:00 17 3 22 190° S
Mi, 08.02. 7:00 9 2 13 150° SO
Mi, 08.02. 1:00 7 2 11 180° S
Di, 07.02. 19:00 6 1 30 190° S
Di, 07.02. 13:00 18 3 29 210° SW
Di, 07.02. 7:00 9 2 19 180° S
Di, 07.02. 1:00 13 3 19 180° S
Mo, 06.02. 19:00 7 2 18 170° S
Ortszeit Stärke Spitze Richtung
km/h Bft. km/h Grad Sektor
Mi, 08.02. 18:00 9 2 15 180° S
Mi, 08.02. 17:50 9 2 - 180° S
Mi, 08.02. 17:40 11 2 - 180° S
Mi, 08.02. 17:30 11 2 14 180° S
Mi, 08.02. 17:20 11 2 - 180° S
Mi, 08.02. 17:10 11 2 - 170° S
Mi, 08.02. 17:00 11 2 19 170° S
Mi, 08.02. 16:30 13 3 19 180° S
Mi, 08.02. 16:00 14 3 22 190° S
Mi, 08.02. 15:30 15 3 22 200° S
Mi, 08.02. 15:00 14 3 22 200° S
Ortszeit Untergrenze Bedeckung Gattung
total tief tief mittel hoch
Mi, 08.02. 13:00 - 0/8 0/8 - - -
Mi, 08.02. 7:00 420 m 1/8 1/8 - - -
Mi, 08.02. 1:00 9000 m 1/8 0/8 - - -
Di, 07.02. 19:00 - 0/8 0/8 - - -
Di, 07.02. 13:00 420 m 1/8 1/8 - - -
Di, 07.02. 7:00 300 m 1/8 1/8 - - -
Di, 07.02. 1:00 30 m 8/8 8/8 - - -
Mo, 06.02. 19:00 180 m 6/8 6/8 - - -
Ortszeit Bedeckungsgrad in Achtel und Wolkenuntergrenze
Mi, 08.02. 18:00 6(10500m)
Mi, 08.02. 17:50 6(10500m)
Mi, 08.02. 17:40 6
Mi, 08.02. 17:30 6(10500m)
Mi, 08.02. 17:20 6(10500m)
Mi, 08.02. 17:10 4
Mi, 08.02. 17:00 4(10500m)
Mi, 08.02. 16:30 4(10500m)
Mi, 08.02. 16:00 keine Wolken
Mi, 08.02. 15:30 keine Wolken
Mi, 08.02. 15:00 keine Wolken
Ortszeit Luftdruck NN (hPa) Tendenz (hPa in 3 Std.)
Mi, 08.02. 13:00 1038 - 0,9
Mi, 08.02. 7:00 1039 + 0,1
Mi, 08.02. 1:00 1040 - 0,5
Di, 07.02. 19:00 1040 + 0,3
Di, 07.02. 13:00 1040 - 0,4
Di, 07.02. 7:00 1040 - 0,6
Di, 07.02. 1:00 1041 - 0,1
Mo, 06.02. 19:00 1041 + 0,6
Ortszeit Luftdruck NN (hPa) Tendenz (hPa in 3 Std.)
Mi, 08.02. 18:00 1035 - 1,8
Mi, 08.02. 17:50 1035 keine Meldung
Mi, 08.02. 17:40 1035 keine Meldung
Mi, 08.02. 17:30 1035 - 2,0
Mi, 08.02. 17:20 1035 keine Meldung
Mi, 08.02. 17:10 1035 keine Meldung
Mi, 08.02. 17:00 1036 - 2,0
Mi, 08.02. 16:30 1036 - 2,1
Mi, 08.02. 16:00 1036 - 2,0
Mi, 08.02. 15:30 1036 - 2,1
Mi, 08.02. 15:00 1037 - 2,3
Ortszeit Schneehöhe (cm)
Mi, 08.02. 13:00 0
Mi, 08.02. 7:00 0
Mi, 08.02. 1:00 0
Di, 07.02. 19:00 0
Di, 07.02. 13:00 0
Di, 07.02. 7:00 0
Di, 07.02. 1:00 0
Mo, 06.02. 19:00 0
Ortszeit Schneehöhe (cm)
Mi, 08.02. 18:00 0
Mi, 08.02. 17:50 0
Mi, 08.02. 17:40 0
Mi, 08.02. 17:30 0
Mi, 08.02. 17:20 0
Mi, 08.02. 17:10 0
Mi, 08.02. 17:00 0
Mi, 08.02. 16:30 0
Mi, 08.02. 16:00 0
Mi, 08.02. 15:30 0
Mi, 08.02. 15:00 0
Link zu dieser Seite / Seite empfehlen

Das Wetter in ...